Time;durP1;ratioP1;P1;durP2;ratioP2;P2;SDS_P1;SDS_P2;PMS_P1;PMS_P2;Temp;Humidity;BMP_temperature;BMP_pressure;BME280_temperature;BME280_humidity;BME280_pressure;Samples;Min_cycle;Max_cycle;Signal;HPM_P1;HPM_P2
2024/01/27 00:02:22;;;;;;;13.00;2.10;;;;;;;;;;6144899;23;20018;-61
2024/01/27 00:05:10;;;;;;;18.83;2.67;;;;;;;;;;6145670;23;20025;-60
2024/01/27 00:08:03;;;;;;;12.55;2.30;;;;;;;;;;6145548;23;20025;-59
2024/01/27 00:10:51;;;;;;;15.73;2.53;;;;;;;;;;6144947;23;20033;-59
2024/01/27 00:13:45;;;;;;;14.68;3.40;;;;;;;;;;6145427;23;20025;-58
2024/01/27 00:16:32;;;;;;;11.07;2.25;;;;;;;;;;6146129;23;20470;-65
2024/01/27 00:19:06;;;;;;;12.95;2.45;;;;;;;;;;6146570;23;20021;-59
2024/01/27 00:21:46;;;;;;;19.75;2.95;;;;;;;;;;6144350;23;20026;-58
2024/01/27 00:24:20;;;;;;;9.90;2.45;;;;;;;;;;6145037;23;20088;-59
2024/01/27 00:26:47;;;;;;;25.17;2.83;;;;;;;;;;6147160;23;20076;-60
2024/01/27 00:29:15;;;;;;;;;;;;;;;;;;6145971;23;20112;-59
2024/01/27 00:31:50;;;;;;;16.33;2.58;;;;;;;;;;6145248;23;19990;-58
2024/01/27 00:34:17;;;;;;;11.27;2.10;;;;;;;;;;6147246;23;20022;-60
2024/01/27 00:36:52;;;;;;;21.63;2.70;;;;;;;;;;6146895;23;20021;-60
2024/01/27 00:39:19;;;;;;;23.20;2.75;;;;;;;;;;6145084;23;20080;-59
2024/01/27 00:41:46;;;;;;;25.42;3.13;;;;;;;;;;6146941;23;20029;-60
2024/01/27 00:44:20;;;;;;;18.95;2.60;;;;;;;;;;6147286;23;20025;-61
2024/01/27 00:46:47;;;;;;;15.48;2.47;;;;;;;;;;6144724;23;20080;-63
2024/01/27 00:49:22;;;;;;;11.73;2.25;;;;;;;;;;6146515;23;20518;-63
2024/01/27 00:51:49;;;;;;;11.70;2.55;;;;;;;;;;6144638;23;20025;-63
2024/01/27 00:54:17;;;;;;;18.55;3.80;;;;;;;;;;6146413;23;20363;-64
2024/01/27 00:56:50;;;;;;;14.73;2.55;;;;;;;;;;6145830;23;20037;-63
2024/01/27 00:59:18;;;;;;;19.52;2.50;;;;;;;;;;6144602;23;20029;-63
2024/01/27 01:01:45;;;;;;;17.50;2.65;;;;;;;;;;6144697;23;20163;-64
2024/01/27 01:04:18;;;;;;;14.57;2.72;;;;;;;;;;6145706;23;20029;-59
2024/01/27 01:06:45;;;;;;;13.55;2.30;;;;;;;;;;6146171;23;20118;-58
2024/01/27 01:09:19;;;;;;;27.73;2.67;;;;;;;;;;6146026;23;20396;-59
2024/01/27 01:11:47;;;;;;;18.55;3.42;;;;;;;;;;6146522;23;20410;-58
2024/01/27 01:14:14;;;;;;;20.30;2.60;;;;;;;;;;6144890;23;20372;-65
2024/01/27 01:16:48;;;;;;;20.25;3.78;;;;;;;;;;6144324;23;20107;-48
2024/01/27 01:19:15;;;;;;;17.58;2.22;;;;;;;;;;6146818;23;20359;-50
2024/01/27 01:22:02;;;;;;;24.67;2.67;;;;;;;;;;6145335;23;20406;-52
2024/01/27 01:24:39;;;;;;;23.70;3.15;;;;;;;;;;6144198;23;20339;-49
2024/01/27 01:27:13;;;;;;;15.38;2.30;;;;;;;;;;6148543;23;20022;-49
2024/01/27 01:29:41;;;;;;;22.63;3.05;;;;;;;;;;6145630;23;20509;-50
2024/01/27 01:32:08;;;;;;;13.82;2.47;;;;;;;;;;6146517;23;20029;-59
2024/01/27 01:34:42;;;;;;;26.27;3.13;;;;;;;;;;6146172;23;20028;-59
2024/01/27 01:37:09;;;;;;;31.38;3.22;;;;;;;;;;6147377;23;20025;-59
2024/01/27 01:39:43;;;;;;;24.17;3.45;;;;;;;;;;6143979;23;20029;-59
2024/01/27 01:42:10;;;;;;;22.88;3.03;;;;;;;;;;6148290;23;20021;-67
2024/01/27 01:44:37;;;;;;;23.35;3.05;;;;;;;;;;6145318;23;20057;-60
2024/01/27 01:47:11;;;;;;;28.23;3.13;;;;;;;;;;6139050;23;20049;-59
2024/01/27 01:49:38;;;;;;;19.45;3.13;;;;;;;;;;6121017;23;20025;-59
2024/01/27 01:52:06;;;;;;;;;;;;;;;;;;6148036;23;20025;-59
2024/01/27 01:54:39;;;;;;;28.70;3.28;;;;;;;;;;6144913;23;20318;-59
2024/01/27 01:57:07;;;;;;;21.10;3.42;;;;;;;;;;6145927;23;20021;-59
2024/01/27 01:59:41;;;;;;;19.92;2.72;;;;;;;;;;6143915;23;20073;-59
2024/01/27 02:02:09;;;;;;;25.20;4.15;;;;;;;;;;6143970;23;20029;-60
2024/01/27 02:04:46;;;;;;;33.45;3.13;;;;;;;;;;6143989;23;20021;-60
2024/01/27 02:07:20;;;;;;;31.48;4.55;;;;;;;;;;6145332;23;20028;-59
2024/01/27 02:09:47;;;;;;;28.23;3.15;;;;;;;;;;6143722;23;20025;-60
2024/01/27 02:12:23;;;;;;;16.88;2.97;;;;;;;;;;6145938;23;20021;-54
2024/01/27 02:14:51;;;;;;;21.02;2.97;;;;;;;;;;6143164;23;20025;-60
2024/01/27 02:17:18;;;;;;;23.92;3.83;;;;;;;;;;6143996;23;20503;-60
2024/01/27 02:19:51;;;;;;;27.42;3.17;;;;;;;;;;6144909;23;20033;-60
2024/01/27 02:22:19;;;;;;;26.65;3.60;;;;;;;;;;6143200;23;20021;-59
2024/01/27 02:24:59;;;;;;;25.88;3.42;;;;;;;;;;6143291;23;20036;-60
2024/01/27 02:27:26;;;;;;;29.33;3.42;;;;;;;;;;6145946;23;20076;-60
2024/01/27 02:30:01;;;;;;;34.08;3.58;;;;;;;;;;6145620;23;20025;-58
2024/01/27 02:32:29;;;;;;;25.77;3.70;;;;;;;;;;6144552;23;20467;-54
2024/01/27 02:34:56;;;;;;;25.35;2.97;;;;;;;;;;6144056;23;20088;-55
2024/01/27 02:37:29;;;;;;;28.67;3.53;;;;;;;;;;6144092;23;20097;-52
2024/01/27 02:39:57;;;;;;;18.08;3.55;;;;;;;;;;6143248;23;20328;-59
2024/01/27 02:42:30;;;;;;;25.95;2.58;;;;;;;;;;6145899;23;20022;-57
2024/01/27 02:44:58;;;;;;;20.75;2.80;;;;;;;;;;6142669;23;20479;-57
2024/01/27 02:47:25;;;;;;;25.55;2.60;;;;;;;;;;6143634;23;20022;-57
2024/01/27 02:49:59;;;;;;;21.40;3.00;;;;;;;;;;6145248;23;20037;-58
2024/01/27 02:52:27;;;;;;;15.05;3.03;;;;;;;;;;6144930;23;20479;-58
2024/01/27 02:55:01;;;;;;;16.88;2.75;;;;;;;;;;6119749;23;20127;-59
2024/01/27 02:57:28;;;;;;;25.00;3.60;;;;;;;;;;6146119;23;20030;-49
2024/01/27 02:59:56;;;;;;;25.80;3.53;;;;;;;;;;6143818;23;20022;-49
2024/01/27 03:02:30;;;;;;;22.67;3.17;;;;;;;;;;6144806;23;20052;-49
2024/01/27 03:04:57;;;;;;;27.20;2.85;;;;;;;;;;6143378;23;20026;-47
2024/01/27 03:07:31;;;;;;;26.73;2.78;;;;;;;;;;6144831;23;20026;-60
2024/01/27 03:09:59;;;;;;;;;;;;;;;;;;6144434;23;20538;-57
2024/01/27 03:12:26;;;;;;;21.38;3.40;;;;;;;;;;6145644;23;20297;-57
2024/01/27 03:15:00;;;;;;;18.80;3.25;;;;;;;;;;6143703;23;20398;-57
2024/01/27 03:17:28;;;;;;;27.05;3.65;;;;;;;;;;6143797;23;20021;-58
2024/01/27 03:20:01;;;;;;;30.40;3.03;;;;;;;;;;6143255;23;20095;-57
2024/01/27 03:22:35;;;;;;;16.05;2.95;;;;;;;;;;6142183;23;20048;-57
2024/01/27 03:25:16;;;;;;;34.78;3.42;;;;;;;;;;6145110;23;20368;-60
2024/01/27 03:27:44;;;;;;;24.45;3.08;;;;;;;;;;6144535;23;20092;-60
2024/01/27 03:30:19;;;;;;;19.48;2.92;;;;;;;;;;6145676;23;20021;-61
2024/01/27 03:32:46;;;;;;;;;;;;;;;;;;6147162;23;20061;-61
2024/01/27 03:35:13;;;;;;;31.48;3.72;;;;;;;;;;6145876;23;20142;-55
2024/01/27 03:37:49;;;;;;;29.75;3.20;;;;;;;;;;6146323;23;20032;-59
2024/01/27 03:40:16;;;;;;;27.67;3.60;;;;;;;;;;6145351;23;20025;-67
2024/01/27 03:42:49;;;;;;;24.67;3.00;;;;;;;;;;6146215;23;20018;-67
2024/01/27 03:45:17;;;;;;;25.00;2.75;;;;;;;;;;6146603;23;20354;-66
2024/01/27 03:47:44;;;;;;;28.27;3.65;;;;;;;;;;6145772;23;20365;-67
2024/01/27 03:50:17;;;;;;;25.67;3.10;;;;;;;;;;6147305;23;20032;-67
2024/01/27 03:52:45;;;;;;;26.70;3.20;;;;;;;;;;6146893;23;20407;-67
2024/01/27 03:55:20;;;;;;;28.38;3.65;;;;;;;;;;6147827;23;20069;-60
2024/01/27 03:57:47;;;;;;;44.72;3.88;;;;;;;;;;6147532;23;20048;-60
2024/01/27 04:00:14;;;;;;;;;;;;;;;;;;6147595;23;20104;-60
2024/01/27 04:02:48;;;;;;;38.97;3.97;;;;;;;;;;6146457;23;19920;-60
2024/01/27 04:05:15;;;;;;;35.90;3.63;;;;;;;;;;6147583;23;20029;-67
2024/01/27 04:07:50;;;;;;;29.42;3.45;;;;;;;;;;6146781;23;20382;-67
2024/01/27 04:10:18;;;;;;;22.63;2.97;;;;;;;;;;6146829;23;20337;-68
2024/01/27 04:12:45;;;;;;;;;;;;;;;;;;6148502;23;20057;-68
2024/01/27 04:15:20;;;;;;;25.40;2.65;;;;;;;;;;6147014;23;19921;-68
2024/01/27 04:17:47;;;;;;;21.15;3.28;;;;;;;;;;6145380;23;20025;-68
2024/01/27 04:20:22;;;;;;;32.50;3.70;;;;;;;;;;6147281;23;20029;-68
2024/01/27 04:22:49;;;;;;;26.52;3.95;;;;;;;;;;6147613;23;20034;-62
2024/01/27 04:25:23;;;;;;;46.83;4.43;;;;;;;;;;6146761;23;20029;-63
2024/01/27 04:27:50;;;;;;;47.08;5.03;;;;;;;;;;6147184;23;20029;-63
2024/01/27 04:30:17;;;;;;;35.35;4.03;;;;;;;;;;6146584;23;20081;-62
2024/01/27 04:32:51;;;;;;;49.88;4.03;;;;;;;;;;6121417;23;20026;-56
2024/01/27 04:35:19;;;;;;;35.75;4.43;;;;;;;;;;6146386;23;20021;-58
2024/01/27 04:37:53;;;;;;;44.05;4.72;;;;;;;;;;6146278;23;20380;-57
2024/01/27 04:40:20;;;;;;;;;;;;;;;;;;6146343;23;20026;-59
2024/01/27 04:42:54;;;;;;;48.60;5.05;;;;;;;;;;6145887;23;19975;-58
2024/01/27 04:45:21;;;;;;;43.92;4.05;;;;;;;;;;6147275;23;20021;-58
2024/01/27 04:47:49;;;;;;;32.30;4.00;;;;;;;;;;6146788;23;20025;-58
2024/01/27 04:50:23;;;;;;;37.13;4.00;;;;;;;;;;6145591;23;20021;-63
2024/01/27 04:52:50;;;;;;;;;;;;;;;;;;6147600;23;20025;-63
2024/01/27 04:55:23;;;;;;;39.08;4.53;;;;;;;;;;6146337;23;19924;-63
2024/01/27 04:57:50;;;;;;;56.72;5.63;;;;;;;;;;6147600;23;20740;-62
2024/01/27 05:00:18;;;;;;;40.50;4.60;;;;;;;;;;6145514;23;20021;-54
2024/01/27 05:02:52;;;;;;;46.05;4.15;;;;;;;;;;6145051;23;20112;-67
2024/01/27 05:05:20;;;;;;;;;;;;;;;;;;6144901;23;20025;-61
2024/01/27 05:07:53;;;;;;;53.63;4.70;;;;;;;;;;6145157;23;19990;-61
2024/01/27 05:10:22;;;;;;;52.25;5.38;;;;;;;;;;6144682;23;20029;-60
2024/01/27 05:12:49;;;;;;;36.30;4.93;;;;;;;;;;6146603;23;20097;-61
2024/01/27 05:15:23;;;;;;;63.70;7.47;;;;;;;;;;6144227;23;20414;-61
2024/01/27 05:17:51;;;;;;;51.65;4.43;;;;;;;;;;6145966;23;20057;-61
2024/01/27 05:20:24;;;;;;;46.72;4.47;;;;;;;;;;6144227;23;20192;-53
2024/01/27 05:22:58;;;;;;;52.72;4.85;;;;;;;;;;6146317;23;20101;-51
2024/01/27 05:25:32;;;;;;;52.88;4.72;;;;;;;;;;6145015;23;20080;-54
2024/01/27 05:27:59;;;;;;;47.63;4.80;;;;;;;;;;6145336;23;20026;-54
2024/01/27 05:30:26;;;;;;;61.13;5.97;;;;;;;;;;6144828;23;20088;-58
2024/01/27 05:33:01;;;;;;;63.65;5.35;;;;;;;;;;6145135;23;20021;-62
2024/01/27 05:35:28;;;;;;;46.22;5.55;;;;;;;;;;6143927;23;20021;-63
2024/01/27 05:38:02;;;;;;;41.20;4.75;;;;;;;;;;6146054;23;20072;-63
2024/01/27 05:40:29;;;;;;;57.00;5.85;;;;;;;;;;6145393;23;20021;-62
2024/01/27 05:42:57;;;;;;;51.42;5.93;;;;;;;;;;6145775;23;20025;-62
2024/01/27 05:45:31;;;;;;;50.22;4.68;;;;;;;;;;6145647;23;20029;-63
2024/01/27 05:48:06;;;;;;;50.72;4.90;;;;;;;;;;6144397;23;20025;-59
2024/01/27 05:50:43;;;;;;;50.63;4.75;;;;;;;;;;6143217;23;20467;-58
2024/01/27 05:53:10;;;;;;;41.03;3.85;;;;;;;;;;6146030;23;20088;-58
2024/01/27 05:55:37;;;;;;;36.80;4.00;;;;;;;;;;6144048;23;20033;-59
2024/01/27 05:58:11;;;;;;;57.33;3.95;;;;;;;;;;6144900;23;20040;-52
2024/01/27 06:00:38;;;;;;;40.83;4.63;;;;;;;;;;6145638;23;20036;-59
2024/01/27 06:03:12;;;;;;;51.70;5.28;;;;;;;;;;6144062;23;20022;-59
2024/01/27 06:05:40;;;;;;;42.35;4.05;;;;;;;;;;6144350;23;20025;-60
2024/01/27 06:08:13;;;;;;;72.25;5.78;;;;;;;;;;6144529;23;20081;-60
2024/01/27 06:10:41;;;;;;;38.22;4.78;;;;;;;;;;6144755;23;20029;-60
2024/01/27 06:13:08;;;;;;;57.85;4.95;;;;;;;;;;6145609;23;20029;-60
2024/01/27 06:15:41;;;;;;;45.13;5.00;;;;;;;;;;6145164;23;20026;-60
2024/01/27 06:18:08;;;;;;;55.05;4.70;;;;;;;;;;6144756;23;20076;-60
2024/01/27 06:20:43;;;;;;;56.40;5.25;;;;;;;;;;6143514;23;20052;-61
2024/01/27 06:23:16;;;;;;;42.08;4.00;;;;;;;;;;6144849;23;20025;-60
2024/01/27 06:25:50;;;;;;;48.08;5.47;;;;;;;;;;6120967;23;20029;-60
2024/01/27 06:28:24;;;;;;;43.35;5.22;;;;;;;;;;6142984;23;20084;-50
2024/01/27 06:30:51;;;;;;;32.67;4.40;;;;;;;;;;6145443;23;20036;-60
2024/01/27 06:33:25;;;;;;;62.00;6.13;;;;;;;;;;6144301;23;20100;-60
2024/01/27 06:35:52;;;;;;;;;;;;;;;;;;6144224;23;20173;-61
2024/01/27 06:38:27;;;;;;;45.95;4.68;;;;;;;;;;6119293;23;20250;-60
2024/01/27 06:40:54;;;;;;;45.78;5.25;;;;;;;;;;6144544;23;20025;-60
2024/01/27 06:43:21;;;;;;;35.60;4.50;;;;;;;;;;6144734;23;20036;-60
2024/01/27 06:45:58;;;;;;;51.20;4.93;;;;;;;;;;6146125;23;20029;-61
2024/01/27 06:48:32;;;;;;;48.58;4.97;;;;;;;;;;6144782;23;20033;-60
2024/01/27 06:51:07;;;;;;;45.33;5.20;;;;;;;;;;6143269;23;20247;-60
2024/01/27 06:53:34;;;;;;;;;;;;;;;;;;6145242;23;20056;-61
2024/01/27 06:56:01;;;;;;;48.97;4.47;;;;;;;;;;6144481;23;19920;-57
2024/01/27 06:58:36;;;;;;;34.58;3.75;;;;;;;;;;6143104;23;20475;-58
2024/01/27 07:01:03;;;;;;;52.22;4.65;;;;;;;;;;6143419;23;20475;-58
2024/01/27 07:03:39;;;;;;;63.58;6.28;;;;;;;;;;6142833;23;20092;-58
2024/01/27 07:06:13;;;;;;;64.78;6.30;;;;;;;;;;6144494;23;20076;-58
2024/01/27 07:08:41;;;;;;;;;;;;;;;;;;6145214;23;20017;-58
2024/01/27 07:11:08;;;;;;;48.78;4.43;;;;;;;;;;6143315;23;20161;-54
2024/01/27 07:13:42;;;;;;;53.28;4.85;;;;;;;;;;6145212;23;20017;-54
2024/01/27 07:16:09;;;;;;;;;;;;;;;;;;6146307;23;20021;-52
2024/01/27 07:18:44;;;;;;;53.47;4.45;;;;;;;;;;6144541;23;19924;-50
2024/01/27 07:21:17;;;;;;;63.47;5.68;;;;;;;;;;6142675;23;20025;-50
2024/01/27 07:23:53;;;;;;;47.78;5.05;;;;;;;;;;6143113;23;20463;-51
2024/01/27 07:26:27;;;;;;;60.97;6.68;;;;;;;;;;6144065;23;20542;-55
2024/01/27 07:28:54;;;;;;;62.75;7.25;;;;;;;;;;6144317;23;20041;-50
2024/01/27 07:31:22;;;;;;;;;;;;;;;;;;6118814;23;20126;-48
2024/01/27 07:33:56;;;;;;;56.20;5.18;;;;;;;;;;6145038;23;19920;-53
2024/01/27 07:36:25;;;;;;;;;;;;;;;;;;6143423;23;20098;-50
2024/01/27 07:39:00;;;;;;;61.40;5.05;;;;;;;;;;6119994;23;19924;-52
2024/01/27 07:41:27;;;;;;;66.95;6.25;;;;;;;;;;6145880;23;20028;-56
2024/01/27 07:43:58;;;;;;;60.13;7.75;;;;;;;;;;6144877;23;20029;-58
2024/01/27 07:46:31;;;;;;;67.32;6.38;;;;;;;;;;6144281;23;20542;-58
2024/01/27 07:48:59;;;;;;;56.10;4.82;;;;;;;;;;6143794;23;20346;-58
2024/01/27 07:51:32;;;;;;;66.78;6.60;;;;;;;;;;6142306;23;20021;-61
2024/01/27 07:54:00;;;;;;;58.92;5.00;;;;;;;;;;6144417;23;20029;-61
2024/01/27 07:56:27;;;;;;;62.38;5.90;;;;;;;;;;6116821;23;20022;-53
2024/01/27 07:59:01;;;;;;;85.15;5.97;;;;;;;;;;6144480;23;20032;-50
2024/01/27 08:01:28;;;;;;;64.75;5.82;;;;;;;;;;6141986;23;20037;-49
2024/01/27 08:03:56;;;;;;;52.55;5.50;;;;;;;;;;6141426;23;20029;-51
2024/01/27 08:06:30;;;;;;;62.38;7.22;;;;;;;;;;6144674;23;20514;-52
2024/01/27 08:08:57;;;;;;;75.13;6.60;;;;;;;;;;6144074;23;20029;-49
2024/01/27 08:11:52;;;;;;;60.97;6.07;;;;;;;;;;6143329;23;20141;-66
2024/01/27 08:14:21;;;;;;;71.32;6.05;;;;;;;;;;6146454;23;20021;-67
2024/01/27 08:16:54;;;;;;;81.70;6.22;;;;;;;;;;6144576;23;20281;-67
2024/01/27 08:19:28;;;;;;;93.90;8.35;;;;;;;;;;6146624;23;20481;-58
2024/01/27 08:21:56;;;;;;;76.25;8.55;;;;;;;;;;6145813;23;20474;-62
2024/01/27 08:24:24;;;;;;;71.07;5.60;;;;;;;;;;6143513;23;20438;-61
2024/01/27 08:26:58;;;;;;;61.78;6.03;;;;;;;;;;6145097;23;20025;-61
2024/01/27 08:29:32;;;;;;;58.72;5.80;;;;;;;;;;6146214;23;20471;-62
2024/01/27 08:32:00;;;;;;;;;;;;;;;;;;6146116;23;20060;-61
2024/01/27 08:34:28;;;;;;;80.50;6.60;;;;;;;;;;6141689;23;19932;-61
2024/01/27 08:37:02;;;;;;;80.22;9.65;;;;;;;;;;6144370;23;20028;-61
2024/01/27 08:39:30;;;;;;;87.22;8.43;;;;;;;;;;6143628;23;20055;-61
2024/01/27 08:41:57;;;;;;;76.43;6.80;;;;;;;;;;6142582;23;20057;-59
2024/01/27 08:44:31;;;;;;;75.10;6.43;;;;;;;;;;6144761;23;20036;-59
2024/01/27 08:46:59;;;;;;;65.43;7.13;;;;;;;;;;6142551;23;20683;-58
2024/01/27 08:49:29;;;;;;;78.32;7.50;;;;;;;;;;6144420;23;20057;-59
2024/01/27 08:52:03;;;;;;;69.72;6.82;;;;;;;;;;6143535;23;20025;-58
2024/01/27 08:54:30;;;;;;;;;;;;;;;;;;6144517;23;20025;-58
2024/01/27 08:57:05;;;;;;;80.68;6.82;;;;;;;;;;6141157;23;19921;-61
2024/01/27 08:59:32;;;;;;;81.47;7.65;;;;;;;;;;6144852;23;20025;-51
2024/01/27 09:02:00;;;;;;;85.20;8.23;;;;;;;;;;6142245;23;20022;-50
2024/01/27 09:04:33;;;;;;;87.40;8.23;;;;;;;;;;6144702;23;20088;-52
2024/01/27 09:07:03;;;;;;;92.35;7.72;;;;;;;;;;6145110;23;20021;-51
2024/01/27 09:09:40;;;;;;;105.25;10.52;;;;;;;;;;6144561;23;20021;-52
2024/01/27 09:12:27;;;;;;;101.70;9.38;;;;;;;;;;6143397;23;20017;-48
2024/01/27 09:15:21;;;;;;;92.32;7.90;;;;;;;;;;6143477;23;20110;-54
2024/01/27 09:18:08;;;;;;;97.53;9.73;;;;;;;;;;6143965;23;20383;-62
2024/01/27 09:21:03;;;;;;;76.97;8.85;;;;;;;;;;6143933;23;20021;-62
2024/01/27 09:23:57;;;;;;;92.20;8.98;;;;;;;;;;6142588;23;20818;-62
2024/01/27 09:26:51;;;;;;;87.43;7.90;;;;;;;;;;6143599;23;20029;-62
2024/01/27 09:29:38;;;;;;;94.07;7.85;;;;;;;;;;6143782;23;20355;-62
2024/01/27 09:32:31;;;;;;;59.15;6.28;;;;;;;;;;6133143;23;20021;-62
2024/01/27 09:35:20;;;;;;;68.15;6.68;;;;;;;;;;6137150;23;20052;-61
2024/01/27 09:38:14;;;;;;;74.68;7.35;;;;;;;;;;6121270;23;20025;-61
2024/01/27 09:41:00;;;;;;;86.32;7.78;;;;;;;;;;6139080;23;20096;-61
2024/01/27 09:43:56;;;;;;;76.65;7.78;;;;;;;;;;6141920;23;20519;-61
2024/01/27 09:46:49;;;;;;;78.10;8.60;;;;;;;;;;6142221;23;20025;-61
2024/01/27 09:49:38;;;;;;;62.55;6.22;;;;;;;;;;6142230;23;20044;-61
2024/01/27 09:52:31;;;;;;;77.65;6.68;;;;;;;;;;6143572;23;20021;-52
2024/01/27 09:55:19;;;;;;;65.10;7.47;;;;;;;;;;6142552;23;20025;-59
2024/01/27 09:58:15;;;;;;;55.55;7.35;;;;;;;;;;6143588;23;20062;-59
2024/01/27 10:01:01;;;;;;;68.30;6.20;;;;;;;;;;6142836;23;20025;-60
2024/01/27 10:03:55;;;;;;;67.65;7.85;;;;;;;;;;6144556;23;20239;-59
2024/01/27 10:06:42;;;;;;;71.60;6.15;;;;;;;;;;6141877;23;20028;-60
2024/01/27 10:09:36;;;;;;;68.55;7.13;;;;;;;;;;6142356;23;20188;-62
2024/01/27 10:12:23;;;;;;;61.30;6.90;;;;;;;;;;6143121;23;20577;-62
2024/01/27 10:15:20;;;;;;;68.32;8.20;;;;;;;;;;6143271;23;20025;-60
2024/01/27 10:18:08;;;;;;;59.92;6.85;;;;;;;;;;6140412;23;20028;-60
2024/01/27 10:21:13;;;;;;;65.88;7.75;;;;;;;;;;6143273;23;20045;-60
2024/01/27 10:24:08;;;;;;;71.90;7.57;;;;;;;;;;6142162;23;20355;-60
2024/01/27 10:27:05;;;;;;;73.28;7.13;;;;;;;;;;6142240;23;20030;-60
2024/01/27 10:29:53;;;;;;;83.07;8.43;;;;;;;;;;6142198;23;20025;-63
2024/01/27 10:32:59;;;;;;;82.15;8.30;;;;;;;;;;6139431;23;20022;-63
2024/01/27 10:35:46;;;;;;;73.15;7.75;;;;;;;;;;6140790;23;20026;-63
2024/01/27 10:38:40;;;;;;;74.47;7.05;;;;;;;;;;6143308;23;20048;-64
2024/01/27 10:41:27;;;;;;;66.22;9.25;;;;;;;;;;6143455;23;20029;-61
2024/01/27 10:44:21;;;;;;;81.85;9.13;;;;;;;;;;6143806;23;20026;-61
2024/01/27 10:47:11;;;;;;;58.55;5.90;;;;;;;;;;6143369;23;20514;-61
2024/01/27 10:50:09;;;;;;;81.68;9.02;;;;;;;;;;6143148;23;20040;-61
2024/01/27 10:53:02;;;;;;;64.70;7.97;;;;;;;;;;6130559;23;20025;-61
2024/01/27 10:55:57;;;;;;;60.17;6.95;;;;;;;;;;6144217;23;20052;-62
2024/01/27 10:58:47;;;;;;;68.25;6.70;;;;;;;;;;6141687;23;20032;-55
2024/01/27 11:01:40;;;;;;;67.13;8.93;;;;;;;;;;6142594;23;20029;-50
2024/01/27 11:04:36;;;;;;;54.72;7.72;;;;;;;;;;6144820;23;20625;-55
2024/01/27 11:07:22;;;;;;;47.17;5.40;;;;;;;;;;6143919;23;20153;-63
2024/01/27 11:10:16;;;;;;;68.22;7.55;;;;;;;;;;6142754;23;20026;-51
2024/01/27 11:13:04;;;;;;;58.78;7.93;;;;;;;;;;6144622;23;20026;-53
2024/01/27 11:15:59;;;;;;;56.35;6.90;;;;;;;;;;6145206;23;20408;-53
2024/01/27 11:18:50;;;;;;;69.60;7.38;;;;;;;;;;6143266;23;20035;-52
2024/01/27 11:21:43;;;;;;;58.78;7.22;;;;;;;;;;6143750;23;20033;-53
2024/01/27 11:24:37;;;;;;;58.78;7.20;;;;;;;;;;6144316;23;20100;-53
2024/01/27 11:27:31;;;;;;;48.40;6.05;;;;;;;;;;6139831;23;20706;-65
2024/01/27 11:30:29;;;;;;;49.70;7.03;;;;;;;;;;6143577;23;20044;-65
2024/01/27 11:33:51;;;;;;;74.38;7.53;;;;;;;;;;6144148;23;20392;-66
2024/01/27 11:36:45;;;;;;;57.10;6.70;;;;;;;;;;6143874;23;20022;-63
2024/01/27 11:39:38;;;;;;;63.15;8.18;;;;;;;;;;6137995;23;20396;-55
2024/01/27 11:42:25;;;;;;;66.07;7.38;;;;;;;;;;6136834;23;20035;-53
2024/01/27 11:45:19;;;;;;;58.10;6.55;;;;;;;;;;6137215;23;20017;-52
2024/01/27 11:48:07;;;;;;;46.63;5.85;;;;;;;;;;6144525;23;20407;-55
2024/01/27 11:51:23;;;;;;;67.07;8.55;;;;;;;;;;6141932;23;20351;-52
2024/01/27 11:54:09;;;;;;;60.90;7.65;;;;;;;;;;6143145;23;20120;-65
2024/01/27 11:57:02;;;;;;;63.15;8.00;;;;;;;;;;6144349;23;20021;-65
2024/01/27 11:59:51;;;;;;;50.97;6.85;;;;;;;;;;6143971;23;20032;-66
2024/01/27 12:02:45;;;;;;;70.30;10.82;;;;;;;;;;6144146;23;20057;-65
2024/01/27 12:05:32;;;;;;;67.78;8.13;;;;;;;;;;6142782;23;20018;-60
2024/01/27 12:08:25;;;;;;;86.47;11.15;;;;;;;;;;6143567;23;20106;-51
2024/01/27 12:11:15;;;;;;;71.22;8.07;;;;;;;;;;6144858;23;20018;-53
2024/01/27 12:14:09;;;;;;;55.25;6.55;;;;;;;;;;6138541;23;20021;-54
2024/01/27 12:16:57;;;;;;;58.90;8.02;;;;;;;;;;6142519;23;20021;-52
2024/01/27 12:19:54;;;;;;;57.05;7.32;;;;;;;;;;6145170;23;20191;-51
2024/01/27 12:22:42;;;;;;;55.38;7.75;;;;;;;;;;6143725;23;20052;-52
2024/01/27 12:25:43;;;;;;;72.72;8.10;;;;;;;;;;6114328;23;20089;-55
2024/01/27 12:28:30;;;;;;;72.88;8.52;;;;;;;;;;6115989;23;20026;-53
2024/01/27 12:31:26;;;;;;;51.08;6.32;;;;;;;;;;6117034;23;20033;-52
2024/01/27 12:34:13;;;;;;;58.67;8.17;;;;;;;;;;6117352;23;20026;-54
2024/01/27 12:37:08;;;;;;;60.20;6.50;;;;;;;;;;6117299;23;20058;-49
2024/01/27 12:39:55;;;;;;;63.30;8.70;;;;;;;;;;6115860;23;20026;-54
2024/01/27 12:42:51;;;;;;;59.05;7.80;;;;;;;;;;6114462;23;20029;-66
2024/01/27 12:45:38;;;;;;;63.90;8.95;;;;;;;;;;6115468;23;20022;-66
2024/01/27 12:48:31;;;;;;;59.40;7.45;;;;;;;;;;6117296;23;20021;-66
2024/01/27 12:51:19;;;;;;;59.42;8.88;;;;;;;;;;6116191;23;20025;-51
2024/01/27 12:54:13;;;;;;;68.95;6.72;;;;;;;;;;6115143;23;20547;-62
2024/01/27 12:57:02;;;;;;;59.08;8.13;;;;;;;;;;6114799;23;20022;-62
2024/01/27 12:59:54;;;;;;;68.40;9.23;;;;;;;;;;6112635;23;20053;-61
2024/01/27 13:02:43;;;;;;;65.03;8.32;;;;;;;;;;6114832;23;20022;-62
2024/01/27 13:05:38;;;;;;;55.80;7.38;;;;;;;;;;6113127;23;20030;-62
2024/01/27 13:08:07;;;;;;;77.82;9.43;;;;;;;;;;6115271;23;20054;-62
2024/01/27 13:10:59;;;;;;;71.60;8.05;;;;;;;;;;6112058;23;20404;-53
2024/01/27 13:13:47;;;;;;;68.13;9.00;;;;;;;;;;6115150;23;20103;-52
2024/01/27 13:16:40;;;;;;;62.03;9.00;;;;;;;;;;6116558;23;20022;-54
2024/01/27 13:19:28;;;;;;;78.63;9.68;;;;;;;;;;6115488;23;20026;-62
2024/01/27 13:22:24;;;;;;;68.88;8.55;;;;;;;;;;6115340;23;20018;-63
2024/01/27 13:25:15;;;;;;;67.88;9.73;;;;;;;;;;6144002;23;20467;-63
2024/01/27 13:28:28;;;;;;;87.82;9.15;;;;;;;;;;6145515;23;20076;-63
2024/01/27 13:31:16;;;;;;;64.00;9.63;;;;;;;;;;6146381;23;20032;-63
2024/01/27 13:34:09;;;;;;;76.72;9.38;;;;;;;;;;6143611;23;20080;-63
2024/01/27 13:37:04;;;;;;;73.82;10.32;;;;;;;;;;6143620;23;20333;-63
2024/01/27 13:39:57;;;;;;;80.30;9.13;;;;;;;;;;6145412;23;20032;-63
2024/01/27 13:42:45;;;;;;;59.97;8.18;;;;;;;;;;6143812;23;20021;-63
2024/01/27 13:45:38;;;;;;;78.55;9.68;;;;;;;;;;6144871;23;20029;-63
2024/01/27 13:48:26;;;;;;;69.72;10.07;;;;;;;;;;6143582;23;20490;-51
2024/01/27 13:51:19;;;;;;;75.70;8.93;;;;;;;;;;6142155;23;20022;-60
2024/01/27 13:54:09;;;;;;;67.88;7.75;;;;;;;;;;6143137;23;20029;-59
2024/01/27 13:57:02;;;;;;;60.35;7.50;;;;;;;;;;6143120;23;20475;-59
2024/01/27 13:59:49;;;;;;;65.55;8.68;;;;;;;;;;6143351;23;20033;-62
2024/01/27 14:02:43;;;;;;;84.80;11.23;;;;;;;;;;6141271;23;20025;-59
2024/01/27 14:05:30;;;;;;;76.40;8.90;;;;;;;;;;6143574;23;20033;-64
2024/01/27 14:08:24;;;;;;;84.30;8.63;;;;;;;;;;6140918;23;20025;-64
2024/01/27 14:11:11;;;;;;;68.97;8.82;;;;;;;;;;6143966;23;20112;-63
2024/01/27 14:14:05;;;;;;;75.25;8.55;;;;;;;;;;6144532;23;20028;-63
2024/01/27 14:16:52;;;;;;;76.32;9.68;;;;;;;;;;6142942;23;20034;-60
2024/01/27 14:20:05;;;;;;;66.93;8.93;;;;;;;;;;6144386;23;20108;-53
2024/01/27 14:22:52;;;;;;;73.53;7.88;;;;;;;;;;6145594;23;20537;-54
2024/01/27 14:25:53;;;;;;;56.92;8.43;;;;;;;;;;6116295;23;20048;-56
2024/01/27 14:28:46;;;;;;;89.30;11.32;;;;;;;;;;6116440;23;20030;-54
2024/01/27 14:31:40;;;;;;;68.88;7.28;;;;;;;;;;6115311;23;20022;-54
2024/01/27 14:34:27;;;;;;;68.20;8.05;;;;;;;;;;6109901;23;20084;-62
2024/01/27 14:37:21;;;;;;;84.65;9.88;;;;;;;;;;6111850;23;20101;-63
2024/01/27 14:40:10;;;;;;;53.63;6.95;;;;;;;;;;6110269;23;20029;-62
2024/01/27 14:43:08;;;;;;;63.22;8.02;;;;;;;;;;6108449;23;20553;-62
2024/01/27 14:45:56;;;;;;;52.50;7.80;;;;;;;;;;6110877;23;20106;-63
2024/01/27 14:48:50;;;;;;;72.47;9.05;;;;;;;;;;6111451;23;20022;-63
2024/01/27 14:51:38;;;;;;;68.43;9.13;;;;;;;;;;6112364;23;20053;-63
2024/01/27 14:54:31;;;;;;;63.72;7.85;;;;;;;;;;6110497;23;20022;-63
2024/01/27 14:57:18;;;;;;;65.10;8.93;;;;;;;;;;6111477;23;20034;-63
2024/01/27 15:00:15;;;;;;;84.93;9.05;;;;;;;;;;6112882;23;20416;-63
2024/01/27 15:03:01;;;;;;;74.07;9.43;;;;;;;;;;6112907;23;20368;-63
2024/01/27 15:05:54;;;;;;;68.25;7.40;;;;;;;;;;6112654;23;20053;-63
2024/01/27 15:08:41;;;;;;;65.07;8.73;;;;;;;;;;6111575;23;20035;-63
2024/01/27 15:11:34;;;;;;;76.90;8.77;;;;;;;;;;6111848;23;20032;-63
2024/01/27 15:14:22;;;;;;;56.97;8.25;;;;;;;;;;6113065;23;20427;-63
2024/01/27 15:17:16;;;;;;;59.25;7.95;;;;;;;;;;6112751;23;20029;-62
2024/01/27 15:20:03;;;;;;;65.10;8.30;;;;;;;;;;6113615;23;20405;-63
2024/01/27 15:22:57;;;;;;;72.57;8.43;;;;;;;;;;6114032;23;20030;-63
2024/01/27 15:25:50;;;;;;;93.35;11.82;;;;;;;;;;6113888;23;20022;-63
2024/01/27 15:28:44;;;;;;;75.97;10.00;;;;;;;;;;6113849;23;20077;-63
2024/01/27 15:31:32;;;;;;;78.57;8.70;;;;;;;;;;6116197;23;20026;-53
2024/01/27 15:34:25;;;;;;;68.15;8.75;;;;;;;;;;6115040;23;20113;-53
2024/01/27 15:37:20;;;;;;;63.25;9.05;;;;;;;;;;6115176;23;20497;-53
2024/01/27 15:40:13;;;;;;;84.88;9.95;;;;;;;;;;6115049;23;20088;-52
2024/01/27 15:43:01;;;;;;;86.22;9.82;;;;;;;;;;6111909;23;20022;-62
2024/01/27 15:45:54;;;;;;;82.13;8.63;;;;;;;;;;6112411;23;20026;-67
2024/01/27 15:48:48;;;;;;;75.70;9.15;;;;;;;;;;6109247;23;20018;-66